sensor_id;sensor_type;location;lat;lon;timestamp;P1;durP1;ratioP1;P2;durP2;ratioP2
39882;SDS011;55824;52.220;21.040;2023-03-05T00:01:37;4.10;;;1.80;;
39882;SDS011;55824;52.220;21.040;2023-03-05T00:04:04;3.28;;;1.50;;
39882;SDS011;55824;52.220;21.040;2023-03-05T00:06:31;3.30;;;2.25;;
39882;SDS011;55824;52.220;21.040;2023-03-05T00:08:57;2.92;;;1.70;;
39882;SDS011;55824;52.220;21.040;2023-03-05T00:11:23;3.78;;;2.28;;
39882;SDS011;55824;52.220;21.040;2023-03-05T00:13:52;4.60;;;2.07;;
39882;SDS011;55824;52.220;21.040;2023-03-05T00:16:18;3.33;;;2.10;;
39882;SDS011;55824;52.220;21.040;2023-03-05T00:18:44;4.97;;;2.60;;
39882;SDS011;55824;52.220;21.040;2023-03-05T00:21:29;4.15;;;2.03;;
39882;SDS011;55824;52.220;21.040;2023-03-05T00:23:56;3.42;;;2.10;;
39882;SDS011;55824;52.220;21.040;2023-03-05T00:26:25;3.20;;;2.03;;
39882;SDS011;55824;52.220;21.040;2023-03-05T00:28:51;5.68;;;2.42;;
39882;SDS011;55824;52.220;21.040;2023-03-05T00:31:25;4.18;;;2.53;;
39882;SDS011;55824;52.220;21.040;2023-03-05T00:33:55;3.28;;;2.17;;
39882;SDS011;55824;52.220;21.040;2023-03-05T00:36:21;4.35;;;2.53;;
39882;SDS011;55824;52.220;21.040;2023-03-05T00:38:48;4.47;;;2.45;;
39882;SDS011;55824;52.220;21.040;2023-03-05T00:41:14;4.57;;;2.38;;
39882;SDS011;55824;52.220;21.040;2023-03-05T00:43:40;5.88;;;2.63;;
39882;SDS011;55824;52.220;21.040;2023-03-05T00:46:06;4.47;;;2.50;;
39882;SDS011;55824;52.220;21.040;2023-03-05T00:48:32;3.85;;;2.40;;
39882;SDS011;55824;52.220;21.040;2023-03-05T00:50:58;4.28;;;2.38;;
39882;SDS011;55824;52.220;21.040;2023-03-05T00:53:24;4.88;;;2.83;;
39882;SDS011;55824;52.220;21.040;2023-03-05T00:55:51;4.40;;;2.50;;
39882;SDS011;55824;52.220;21.040;2023-03-05T00:58:17;4.95;;;2.60;;
39882;SDS011;55824;52.220;21.040;2023-03-05T01:00:42;4.45;;;2.70;;
39882;SDS011;55824;52.220;21.040;2023-03-05T01:03:08;4.45;;;2.53;;
39882;SDS011;55824;52.220;21.040;2023-03-05T01:05:35;4.60;;;2.90;;
39882;SDS011;55824;52.220;21.040;2023-03-05T01:08:01;5.32;;;2.97;;
39882;SDS011;55824;52.220;21.040;2023-03-05T01:10:27;3.78;;;2.30;;
39882;SDS011;55824;52.220;21.040;2023-03-05T01:12:54;6.35;;;3.10;;
39882;SDS011;55824;52.220;21.040;2023-03-05T01:15:20;4.20;;;2.53;;
39882;SDS011;55824;52.220;21.040;2023-03-05T01:17:47;5.00;;;2.80;;
39882;SDS011;55824;52.220;21.040;2023-03-05T01:20:14;5.13;;;2.85;;
39882;SDS011;55824;52.220;21.040;2023-03-05T01:22:40;5.85;;;3.17;;
39882;SDS011;55824;52.220;21.040;2023-03-05T01:25:06;4.97;;;2.67;;
39882;SDS011;55824;52.220;21.040;2023-03-05T01:27:32;5.28;;;3.00;;
39882;SDS011;55824;52.220;21.040;2023-03-05T01:29:59;4.82;;;2.90;;
39882;SDS011;55824;52.220;21.040;2023-03-05T01:32:25;4.70;;;2.90;;
39882;SDS011;55824;52.220;21.040;2023-03-05T01:34:51;4.35;;;2.47;;
39882;SDS011;55824;52.220;21.040;2023-03-05T01:37:17;5.60;;;3.30;;
39882;SDS011;55824;52.220;21.040;2023-03-05T01:39:43;4.75;;;2.70;;
39882;SDS011;55824;52.220;21.040;2023-03-05T01:42:09;4.57;;;2.70;;
39882;SDS011;55824;52.220;21.040;2023-03-05T01:44:35;6.50;;;3.28;;
39882;SDS011;55824;52.220;21.040;2023-03-05T01:47:01;5.28;;;2.90;;
39882;SDS011;55824;52.220;21.040;2023-03-05T01:49:31;4.55;;;2.80;;
39882;SDS011;55824;52.220;21.040;2023-03-05T01:57:01;6.32;;;3.35;;
39882;SDS011;55824;52.220;21.040;2023-03-05T01:59:28;4.93;;;3.20;;
39882;SDS011;55824;52.220;21.040;2023-03-05T02:01:55;5.07;;;2.90;;
39882;SDS011;55824;52.220;21.040;2023-03-05T02:04:22;4.97;;;3.05;;
39882;SDS011;55824;52.220;21.040;2023-03-05T02:06:51;4.85;;;3.08;;
39882;SDS011;55824;52.220;21.040;2023-03-05T02:09:18;5.22;;;3.13;;
39882;SDS011;55824;52.220;21.040;2023-03-05T02:11:47;5.15;;;2.92;;
39882;SDS011;55824;52.220;21.040;2023-03-05T02:14:13;5.15;;;2.85;;
39882;SDS011;55824;52.220;21.040;2023-03-05T02:16:39;5.80;;;3.40;;
39882;SDS011;55824;52.220;21.040;2023-03-05T02:19:06;6.07;;;3.42;;
39882;SDS011;55824;52.220;21.040;2023-03-05T02:21:43;5.25;;;3.08;;
39882;SDS011;55824;52.220;21.040;2023-03-05T02:24:10;8.13;;;4.15;;
39882;SDS011;55824;52.220;21.040;2023-03-05T02:26:36;5.80;;;2.95;;
39882;SDS011;55824;52.220;21.040;2023-03-05T02:29:03;5.93;;;3.60;;
39882;SDS011;55824;52.220;21.040;2023-03-05T02:31:29;6.03;;;3.55;;
39882;SDS011;55824;52.220;21.040;2023-03-05T02:33:55;6.13;;;3.63;;
39882;SDS011;55824;52.220;21.040;2023-03-05T02:36:21;6.20;;;3.55;;
39882;SDS011;55824;52.220;21.040;2023-03-05T02:38:48;5.50;;;3.47;;
39882;SDS011;55824;52.220;21.040;2023-03-05T02:41:14;7.43;;;3.60;;
39882;SDS011;55824;52.220;21.040;2023-03-05T02:43:40;6.20;;;3.30;;
39882;SDS011;55824;52.220;21.040;2023-03-05T02:46:06;5.60;;;3.03;;
39882;SDS011;55824;52.220;21.040;2023-03-05T02:48:32;6.07;;;3.75;;
39882;SDS011;55824;52.220;21.040;2023-03-05T02:50:58;6.72;;;3.92;;
39882;SDS011;55824;52.220;21.040;2023-03-05T02:53:25;6.43;;;3.60;;
39882;SDS011;55824;52.220;21.040;2023-03-05T02:55:51;6.28;;;3.72;;
39882;SDS011;55824;52.220;21.040;2023-03-05T02:58:17;7.25;;;3.78;;
39882;SDS011;55824;52.220;21.040;2023-03-05T03:00:43;7.00;;;3.60;;
39882;SDS011;55824;52.220;21.040;2023-03-05T03:03:10;5.90;;;3.33;;
39882;SDS011;55824;52.220;21.040;2023-03-05T03:05:36;5.68;;;3.33;;
39882;SDS011;55824;52.220;21.040;2023-03-05T03:08:03;4.53;;;2.88;;
39882;SDS011;55824;52.220;21.040;2023-03-05T03:10:29;7.65;;;3.50;;
39882;SDS011;55824;52.220;21.040;2023-03-05T03:12:55;5.78;;;3.47;;
39882;SDS011;55824;52.220;21.040;2023-03-05T03:15:21;5.43;;;3.35;;
39882;SDS011;55824;52.220;21.040;2023-03-05T03:17:47;5.45;;;3.42;;
39882;SDS011;55824;52.220;21.040;2023-03-05T03:20:13;5.47;;;3.28;;
39882;SDS011;55824;52.220;21.040;2023-03-05T03:22:40;6.65;;;3.80;;
39882;SDS011;55824;52.220;21.040;2023-03-05T03:25:07;6.38;;;3.83;;
39882;SDS011;55824;52.220;21.040;2023-03-05T03:27:33;5.80;;;3.60;;
39882;SDS011;55824;52.220;21.040;2023-03-05T03:29:59;5.43;;;3.17;;
39882;SDS011;55824;52.220;21.040;2023-03-05T03:32:28;7.22;;;4.22;;
39882;SDS011;55824;52.220;21.040;2023-03-05T03:34:54;7.72;;;4.20;;
39882;SDS011;55824;52.220;21.040;2023-03-05T03:37:20;7.35;;;3.60;;
39882;SDS011;55824;52.220;21.040;2023-03-05T03:39:46;6.10;;;3.45;;
39882;SDS011;55824;52.220;21.040;2023-03-05T03:42:15;6.00;;;3.40;;
39882;SDS011;55824;52.220;21.040;2023-03-05T03:44:41;6.22;;;3.35;;
39882;SDS011;55824;52.220;21.040;2023-03-05T03:47:07;5.93;;;3.47;;
39882;SDS011;55824;52.220;21.040;2023-03-05T03:49:33;8.75;;;3.78;;
39882;SDS011;55824;52.220;21.040;2023-03-05T03:51:59;6.00;;;3.58;;
39882;SDS011;55824;52.220;21.040;2023-03-05T03:54:25;5.57;;;3.38;;
39882;SDS011;55824;52.220;21.040;2023-03-05T03:56:51;6.70;;;3.80;;
39882;SDS011;55824;52.220;21.040;2023-03-05T03:59:17;6.32;;;3.75;;
39882;SDS011;55824;52.220;21.040;2023-03-05T04:01:43;6.60;;;3.42;;
39882;SDS011;55824;52.220;21.040;2023-03-05T04:04:10;5.55;;;3.47;;
39882;SDS011;55824;52.220;21.040;2023-03-05T04:06:37;5.75;;;3.65;;
39882;SDS011;55824;52.220;21.040;2023-03-05T04:09:03;5.80;;;2.97;;
39882;SDS011;55824;52.220;21.040;2023-03-05T04:11:30;6.75;;;4.03;;
39882;SDS011;55824;52.220;21.040;2023-03-05T04:13:56;6.45;;;3.65;;
39882;SDS011;55824;52.220;21.040;2023-03-05T04:16:22;7.22;;;3.75;;
39882;SDS011;55824;52.220;21.040;2023-03-05T04:18:48;5.25;;;3.38;;
39882;SDS011;55824;52.220;21.040;2023-03-05T04:21:14;6.05;;;3.53;;
39882;SDS011;55824;52.220;21.040;2023-03-05T04:23:40;6.35;;;3.53;;
39882;SDS011;55824;52.220;21.040;2023-03-05T04:26:06;5.88;;;3.35;;
39882;SDS011;55824;52.220;21.040;2023-03-05T04:28:32;7.00;;;3.90;;
39882;SDS011;55824;52.220;21.040;2023-03-05T04:30:58;5.50;;;3.63;;
39882;SDS011;55824;52.220;21.040;2023-03-05T04:33:24;4.88;;;3.22;;
39882;SDS011;55824;52.220;21.040;2023-03-05T04:35:50;6.38;;;3.70;;
39882;SDS011;55824;52.220;21.040;2023-03-05T04:38:16;6.80;;;4.13;;
39882;SDS011;55824;52.220;21.040;2023-03-05T04:40:43;7.00;;;3.95;;
39882;SDS011;55824;52.220;21.040;2023-03-05T04:43:09;6.10;;;3.33;;
39882;SDS011;55824;52.220;21.040;2023-03-05T04:45:37;6.55;;;3.90;;
39882;SDS011;55824;52.220;21.040;2023-03-05T04:48:03;5.63;;;3.60;;
39882;SDS011;55824;52.220;21.040;2023-03-05T04:50:29;6.82;;;3.42;;
39882;SDS011;55824;52.220;21.040;2023-03-05T04:52:55;5.55;;;3.53;;
39882;SDS011;55824;52.220;21.040;2023-03-05T04:55:21;6.32;;;3.30;;
39882;SDS011;55824;52.220;21.040;2023-03-05T04:57:47;7.32;;;3.42;;
39882;SDS011;55824;52.220;21.040;2023-03-05T05:00:14;6.47;;;3.80;;
39882;SDS011;55824;52.220;21.040;2023-03-05T05:02:41;7.03;;;3.90;;
39882;SDS011;55824;52.220;21.040;2023-03-05T05:05:07;5.80;;;3.72;;
39882;SDS011;55824;52.220;21.040;2023-03-05T05:07:33;5.40;;;3.25;;
39882;SDS011;55824;52.220;21.040;2023-03-05T05:09:59;6.90;;;3.97;;
39882;SDS011;55824;52.220;21.040;2023-03-05T05:12:29;5.82;;;3.65;;
39882;SDS011;55824;52.220;21.040;2023-03-05T05:14:55;6.63;;;4.07;;
39882;SDS011;55824;52.220;21.040;2023-03-05T05:17:22;5.97;;;3.40;;
39882;SDS011;55824;52.220;21.040;2023-03-05T05:19:48;5.72;;;3.35;;
39882;SDS011;55824;52.220;21.040;2023-03-05T05:22:14;6.45;;;3.50;;
39882;SDS011;55824;52.220;21.040;2023-03-05T05:24:40;5.93;;;4.03;;
39882;SDS011;55824;52.220;21.040;2023-03-05T05:27:07;5.85;;;3.53;;
39882;SDS011;55824;52.220;21.040;2023-03-05T05:29:33;6.30;;;3.65;;
39882;SDS011;55824;52.220;21.040;2023-03-05T05:31:59;6.65;;;3.83;;
39882;SDS011;55824;52.220;21.040;2023-03-05T05:34:25;5.88;;;3.50;;
39882;SDS011;55824;52.220;21.040;2023-03-05T05:36:51;5.68;;;2.95;;
39882;SDS011;55824;52.220;21.040;2023-03-05T05:39:17;6.03;;;3.72;;
39882;SDS011;55824;52.220;21.040;2023-03-05T05:41:43;6.35;;;3.63;;
39882;SDS011;55824;52.220;21.040;2023-03-05T05:44:09;5.93;;;3.53;;
39882;SDS011;55824;52.220;21.040;2023-03-05T05:46:35;6.35;;;3.80;;
39882;SDS011;55824;52.220;21.040;2023-03-05T05:49:02;5.72;;;3.25;;
39882;SDS011;55824;52.220;21.040;2023-03-05T05:51:28;6.03;;;3.28;;
39882;SDS011;55824;52.220;21.040;2023-03-05T05:53:54;5.43;;;3.40;;
39882;SDS011;55824;52.220;21.040;2023-03-05T05:56:20;6.20;;;3.33;;
39882;SDS011;55824;52.220;21.040;2023-03-05T05:58:46;5.72;;;3.50;;
39882;SDS011;55824;52.220;21.040;2023-03-05T06:01:22;5.22;;;3.00;;
39882;SDS011;55824;52.220;21.040;2023-03-05T06:03:48;5.55;;;2.97;;
39882;SDS011;55824;52.220;21.040;2023-03-05T06:06:15;6.10;;;3.30;;
39882;SDS011;55824;52.220;21.040;2023-03-05T06:08:42;5.68;;;3.47;;
39882;SDS011;55824;52.220;21.040;2023-03-05T06:11:08;5.40;;;3.25;;
39882;SDS011;55824;52.220;21.040;2023-03-05T06:13:35;6.38;;;3.13;;
39882;SDS011;55824;52.220;21.040;2023-03-05T06:16:01;7.03;;;3.72;;
39882;SDS011;55824;52.220;21.040;2023-03-05T06:18:28;5.35;;;3.38;;
39882;SDS011;55824;52.220;21.040;2023-03-05T06:20:58;5.88;;;3.40;;
39882;SDS011;55824;52.220;21.040;2023-03-05T06:23:24;6.45;;;3.30;;
39882;SDS011;55824;52.220;21.040;2023-03-05T06:25:51;5.25;;;3.17;;
39882;SDS011;55824;52.220;21.040;2023-03-05T06:28:18;7.03;;;3.22;;
39882;SDS011;55824;52.220;21.040;2023-03-05T06:30:44;5.55;;;3.40;;
39882;SDS011;55824;52.220;21.040;2023-03-05T06:33:10;5.00;;;3.00;;
39882;SDS011;55824;52.220;21.040;2023-03-05T06:35:38;6.82;;;3.72;;
39882;SDS011;55824;52.220;21.040;2023-03-05T06:38:05;5.13;;;3.03;;
39882;SDS011;55824;52.220;21.040;2023-03-05T06:40:32;5.25;;;3.08;;
39882;SDS011;55824;52.220;21.040;2023-03-05T06:42:57;5.35;;;2.85;;
39882;SDS011;55824;52.220;21.040;2023-03-05T06:45:23;5.38;;;3.10;;
39882;SDS011;55824;52.220;21.040;2023-03-05T06:47:49;4.32;;;2.85;;
39882;SDS011;55824;52.220;21.040;2023-03-05T06:50:15;5.70;;;3.40;;
39882;SDS011;55824;52.220;21.040;2023-03-05T06:52:41;5.95;;;3.53;;
39882;SDS011;55824;52.220;21.040;2023-03-05T06:55:07;6.20;;;3.38;;
39882;SDS011;55824;52.220;21.040;2023-03-05T06:57:35;7.35;;;3.22;;
39882;SDS011;55824;52.220;21.040;2023-03-05T07:00:01;5.85;;;3.42;;
39882;SDS011;55824;52.220;21.040;2023-03-05T07:02:31;5.95;;;3.67;;
39882;SDS011;55824;52.220;21.040;2023-03-05T07:04:57;7.32;;;4.10;;
39882;SDS011;55824;52.220;21.040;2023-03-05T07:07:23;6.18;;;3.47;;
39882;SDS011;55824;52.220;21.040;2023-03-05T07:09:49;9.60;;;3.55;;
39882;SDS011;55824;52.220;21.040;2023-03-05T07:12:17;5.97;;;3.47;;
39882;SDS011;55824;52.220;21.040;2023-03-05T07:14:43;5.85;;;3.80;;
39882;SDS011;55824;52.220;21.040;2023-03-05T07:17:09;6.72;;;3.78;;
39882;SDS011;55824;52.220;21.040;2023-03-05T07:19:35;6.68;;;3.67;;
39882;SDS011;55824;52.220;21.040;2023-03-05T07:22:02;5.07;;;3.00;;
39882;SDS011;55824;52.220;21.040;2023-03-05T07:24:28;6.15;;;3.15;;
39882;SDS011;55824;52.220;21.040;2023-03-05T07:26:55;6.90;;;3.50;;
39882;SDS011;55824;52.220;21.040;2023-03-05T07:29:22;4.97;;;3.13;;
39882;SDS011;55824;52.220;21.040;2023-03-05T07:31:48;6.90;;;3.60;;
39882;SDS011;55824;52.220;21.040;2023-03-05T07:34:14;5.63;;;3.28;;
39882;SDS011;55824;52.220;21.040;2023-03-05T07:36:40;7.80;;;3.13;;
39882;SDS011;55824;52.220;21.040;2023-03-05T07:39:07;6.43;;;3.55;;
39882;SDS011;55824;52.220;21.040;2023-03-05T07:41:33;6.47;;;3.58;;
39882;SDS011;55824;52.220;21.040;2023-03-05T07:43:59;9.80;;;3.45;;
39882;SDS011;55824;52.220;21.040;2023-03-05T07:46:26;8.05;;;3.20;;
39882;SDS011;55824;52.220;21.040;2023-03-05T07:48:52;6.25;;;2.85;;
39882;SDS011;55824;52.220;21.040;2023-03-05T07:51:19;7.10;;;3.10;;
39882;SDS011;55824;52.220;21.040;2023-03-05T07:53:46;5.93;;;3.35;;
39882;SDS011;55824;52.220;21.040;2023-03-05T07:56:12;5.72;;;3.30;;
39882;SDS011;55824;52.220;21.040;2023-03-05T07:58:38;7.65;;;3.25;;
39882;SDS011;55824;52.220;21.040;2023-03-05T08:01:09;6.82;;;3.60;;
39882;SDS011;55824;52.220;21.040;2023-03-05T08:03:37;6.13;;;3.13;;
39882;SDS011;55824;52.220;21.040;2023-03-05T08:06:04;6.97;;;3.50;;
39882;SDS011;55824;52.220;21.040;2023-03-05T08:08:30;13.93;;;5.20;;
39882;SDS011;55824;52.220;21.040;2023-03-05T08:11:01;11.02;;;5.10;;
39882;SDS011;55824;52.220;21.040;2023-03-05T08:13:27;14.38;;;6.18;;
39882;SDS011;55824;52.220;21.040;2023-03-05T08:15:53;11.40;;;4.90;;
39882;SDS011;55824;52.220;21.040;2023-03-05T08:18:19;10.30;;;5.65;;
39882;SDS011;55824;52.220;21.040;2023-03-05T08:20:45;10.75;;;4.82;;
39882;SDS011;55824;52.220;21.040;2023-03-05T08:23:11;8.02;;;4.65;;
39882;SDS011;55824;52.220;21.040;2023-03-05T08:25:37;11.15;;;4.97;;
39882;SDS011;55824;52.220;21.040;2023-03-05T08:28:03;8.50;;;4.50;;
39882;SDS011;55824;52.220;21.040;2023-03-05T08:30:29;7.25;;;4.25;;
39882;SDS011;55824;52.220;21.040;2023-03-05T08:32:55;8.60;;;4.28;;
39882;SDS011;55824;52.220;21.040;2023-03-05T08:35:21;11.55;;;4.20;;
39882;SDS011;55824;52.220;21.040;2023-03-05T08:37:47;7.97;;;3.78;;
39882;SDS011;55824;52.220;21.040;2023-03-05T08:40:14;7.28;;;4.40;;
39882;SDS011;55824;52.220;21.040;2023-03-05T08:42:42;6.60;;;3.72;;
39882;SDS011;55824;52.220;21.040;2023-03-05T08:45:08;10.13;;;4.80;;
39882;SDS011;55824;52.220;21.040;2023-03-05T08:47:34;7.03;;;4.25;;
39882;SDS011;55824;52.220;21.040;2023-03-05T08:50:00;10.60;;;4.30;;
39882;SDS011;55824;52.220;21.040;2023-03-05T08:52:26;17.02;;;4.82;;
39882;SDS011;55824;52.220;21.040;2023-03-05T08:54:52;10.85;;;4.18;;
39882;SDS011;55824;52.220;21.040;2023-03-05T08:57:18;6.72;;;4.00;;
39882;SDS011;55824;52.220;21.040;2023-03-05T08:59:44;7.30;;;4.22;;
39882;SDS011;55824;52.220;21.040;2023-03-05T09:02:11;8.57;;;4.20;;
39882;SDS011;55824;52.220;21.040;2023-03-05T09:04:37;6.63;;;3.85;;
39882;SDS011;55824;52.220;21.040;2023-03-05T09:07:03;6.55;;;3.63;;
39882;SDS011;55824;52.220;21.040;2023-03-05T09:09:29;6.05;;;3.72;;
39882;SDS011;55824;52.220;21.040;2023-03-05T09:11:57;8.77;;;3.83;;
39882;SDS011;55824;52.220;21.040;2023-03-05T09:14:23;7.38;;;4.30;;
39882;SDS011;55824;52.220;21.040;2023-03-05T09:16:52;6.07;;;4.07;;
39882;SDS011;55824;52.220;21.040;2023-03-05T09:19:17;7.65;;;3.85;;
39882;SDS011;55824;52.220;21.040;2023-03-05T09:21:44;8.25;;;4.57;;
39882;SDS011;55824;52.220;21.040;2023-03-05T09:24:09;7.50;;;4.65;;
39882;SDS011;55824;52.220;21.040;2023-03-05T09:26:36;7.32;;;4.20;;
39882;SDS011;55824;52.220;21.040;2023-03-05T09:29:02;6.68;;;4.47;;
39882;SDS011;55824;52.220;21.040;2023-03-05T09:31:31;7.20;;;4.47;;
39882;SDS011;55824;52.220;21.040;2023-03-05T09:33:57;12.85;;;5.10;;
39882;SDS011;55824;52.220;21.040;2023-03-05T09:36:24;13.82;;;4.80;;
39882;SDS011;55824;52.220;21.040;2023-03-05T09:38:50;7.53;;;4.07;;
39882;SDS011;55824;52.220;21.040;2023-03-05T09:44:01;7.18;;;4.68;;
39882;SDS011;55824;52.220;21.040;2023-03-05T09:46:38;7.30;;;4.45;;
39882;SDS011;55824;52.220;21.040;2023-03-05T09:51:38;8.23;;;4.13;;
39882;SDS011;55824;52.220;21.040;2023-03-05T09:54:11;6.50;;;4.32;;
39882;SDS011;55824;52.220;21.040;2023-03-05T09:56:42;8.30;;;4.90;;
39882;SDS011;55824;52.220;21.040;2023-03-05T10:01:51;11.32;;;5.28;;
39882;SDS011;55824;52.220;21.040;2023-03-05T10:04:20;10.70;;;5.30;;
39882;SDS011;55824;52.220;21.040;2023-03-05T10:06:48;8.60;;;5.15;;
39882;SDS011;55824;52.220;21.040;2023-03-05T10:11:54;7.60;;;4.63;;
39882;SDS011;55824;52.220;21.040;2023-03-05T10:14:26;8.50;;;5.18;;
39882;SDS011;55824;52.220;21.040;2023-03-05T10:19:40;11.43;;;5.60;;
39882;SDS011;55824;52.220;21.040;2023-03-05T10:27:07;11.77;;;6.15;;
39882;SDS011;55824;52.220;21.040;2023-03-05T10:45:40;10.05;;;5.53;;
39882;SDS011;55824;52.220;21.040;2023-03-05T10:50:46;13.00;;;6.20;;
39882;SDS011;55824;52.220;21.040;2023-03-05T10:53:32;10.40;;;6.15;;
39882;SDS011;55824;52.220;21.040;2023-03-05T10:56:00;12.13;;;6.20;;
39882;SDS011;55824;52.220;21.040;2023-03-05T10:58:27;9.60;;;5.30;;
39882;SDS011;55824;52.220;21.040;2023-03-05T11:00:57;10.00;;;5.20;;
39882;SDS011;55824;52.220;21.040;2023-03-05T11:03:23;9.70;;;5.65;;
39882;SDS011;55824;52.220;21.040;2023-03-05T11:05:52;9.00;;;5.10;;
39882;SDS011;55824;52.220;21.040;2023-03-05T11:13:27;9.63;;;5.40;;
39882;SDS011;55824;52.220;21.040;2023-03-05T11:16:01;8.93;;;5.25;;
39882;SDS011;55824;52.220;21.040;2023-03-05T11:18:28;9.32;;;5.25;;
39882;SDS011;55824;52.220;21.040;2023-03-05T11:23:43;9.20;;;5.63;;
39882;SDS011;55824;52.220;21.040;2023-03-05T11:28:39;8.15;;;5.15;;
39882;SDS011;55824;52.220;21.040;2023-03-05T11:31:19;10.13;;;4.65;;
39882;SDS011;55824;52.220;21.040;2023-03-05T11:33:59;7.22;;;4.65;;
39882;SDS011;55824;52.220;21.040;2023-03-05T11:36:27;7.95;;;4.25;;
39882;SDS011;55824;52.220;21.040;2023-03-05T11:41:22;7.40;;;4.03;;
39882;SDS011;55824;52.220;21.040;2023-03-05T11:43:49;7.43;;;4.35;;
39882;SDS011;55824;52.220;21.040;2023-03-05T11:46:16;8.23;;;4.43;;
39882;SDS011;55824;52.220;21.040;2023-03-05T11:48:43;6.60;;;4.10;;
39882;SDS011;55824;52.220;21.040;2023-03-05T11:51:26;7.57;;;4.10;;
39882;SDS011;55824;52.220;21.040;2023-03-05T11:53:58;9.20;;;4.25;;
39882;SDS011;55824;52.220;21.040;2023-03-05T11:56:32;9.07;;;4.22;;
39882;SDS011;55824;52.220;21.040;2023-03-05T11:59:00;10.93;;;5.20;;
39882;SDS011;55824;52.220;21.040;2023-03-05T12:01:29;12.93;;;4.65;;
39882;SDS011;55824;52.220;21.040;2023-03-05T12:03:55;9.85;;;4.95;;
39882;SDS011;55824;52.220;21.040;2023-03-05T12:08:53;10.43;;;5.32;;
39882;SDS011;55824;52.220;21.040;2023-03-05T12:11:21;12.32;;;5.82;;
39882;SDS011;55824;52.220;21.040;2023-03-05T12:18:59;10.63;;;5.40;;
39882;SDS011;55824;52.220;21.040;2023-03-05T12:21:38;11.70;;;5.68;;
39882;SDS011;55824;52.220;21.040;2023-03-05T12:40:19;7.40;;;3.90;;
39882;SDS011;55824;52.220;21.040;2023-03-05T12:45:22;8.25;;;4.35;;
39882;SDS011;55824;52.220;21.040;2023-03-05T12:48:33;7.43;;;3.97;;
39882;SDS011;55824;52.220;21.040;2023-03-05T12:55:35;6.07;;;3.90;;
39882;SDS011;55824;52.220;21.040;2023-03-05T12:58:14;7.00;;;3.50;;
39882;SDS011;55824;52.220;21.040;2023-03-05T13:00:42;4.93;;;3.53;;
39882;SDS011;55824;52.220;21.040;2023-03-05T13:03:20;6.80;;;3.22;;
39882;SDS011;55824;52.220;21.040;2023-03-05T13:05:56;4.97;;;3.28;;
39882;SDS011;55824;52.220;21.040;2023-03-05T13:08:25;5.53;;;3.53;;
39882;SDS011;55824;52.220;21.040;2023-03-05T13:10:59;5.60;;;3.03;;
39882;SDS011;55824;52.220;21.040;2023-03-05T13:13:26;5.50;;;3.38;;
39882;SDS011;55824;52.220;21.040;2023-03-05T13:15:53;5.45;;;3.20;;
39882;SDS011;55824;52.220;21.040;2023-03-05T13:18:26;5.22;;;3.03;;
39882;SDS011;55824;52.220;21.040;2023-03-05T13:20:59;5.90;;;3.05;;
39882;SDS011;55824;52.220;21.040;2023-03-05T13:23:26;6.10;;;3.22;;
39882;SDS011;55824;52.220;21.040;2023-03-05T13:26:14;4.55;;;2.80;;
39882;SDS011;55824;52.220;21.040;2023-03-05T13:28:43;5.88;;;3.30;;
39882;SDS011;55824;52.220;21.040;2023-03-05T13:31:16;7.05;;;3.47;;
39882;SDS011;55824;52.220;21.040;2023-03-05T13:33:50;4.32;;;3.10;;
39882;SDS011;55824;52.220;21.040;2023-03-05T13:36:18;5.35;;;3.28;;
39882;SDS011;55824;52.220;21.040;2023-03-05T13:38:44;5.78;;;3.30;;
39882;SDS011;55824;52.220;21.040;2023-03-05T13:46:08;5.68;;;3.15;;
39882;SDS011;55824;52.220;21.040;2023-03-05T13:48:34;6.15;;;3.08;;
39882;SDS011;55824;52.220;21.040;2023-03-05T13:51:00;4.53;;;2.42;;
39882;SDS011;55824;52.220;21.040;2023-03-05T13:53:31;4.40;;;2.38;;
39882;SDS011;55824;52.220;21.040;2023-03-05T13:56:01;4.75;;;2.40;;
39882;SDS011;55824;52.220;21.040;2023-03-05T14:03:50;5.30;;;2.53;;
39882;SDS011;55824;52.220;21.040;2023-03-05T14:06:18;4.50;;;2.45;;
39882;SDS011;55824;52.220;21.040;2023-03-05T14:08:49;4.70;;;2.67;;
39882;SDS011;55824;52.220;21.040;2023-03-05T14:11:16;4.45;;;2.28;;
39882;SDS011;55824;52.220;21.040;2023-03-05T14:13:42;5.95;;;2.20;;
39882;SDS011;55824;52.220;21.040;2023-03-05T14:16:12;4.10;;;2.38;;
39882;SDS011;55824;52.220;21.040;2023-03-05T14:18:38;3.28;;;2.20;;
39882;SDS011;55824;52.220;21.040;2023-03-05T14:21:17;3.90;;;2.43;;
39882;SDS011;55824;52.220;21.040;2023-03-05T14:23:44;4.57;;;2.20;;
39882;SDS011;55824;52.220;21.040;2023-03-05T14:28:57;4.30;;;2.35;;
39882;SDS011;55824;52.220;21.040;2023-03-05T14:31:24;4.32;;;2.30;;
39882;SDS011;55824;52.220;21.040;2023-03-05T14:33:51;4.07;;;2.30;;
39882;SDS011;55824;52.220;21.040;2023-03-05T14:36:21;4.75;;;2.50;;
39882;SDS011;55824;52.220;21.040;2023-03-05T14:38:47;4.93;;;2.72;;
39882;SDS011;55824;52.220;21.040;2023-03-05T14:43:54;4.50;;;2.80;;
39882;SDS011;55824;52.220;21.040;2023-03-05T14:46:20;4.45;;;2.38;;
39882;SDS011;55824;52.220;21.040;2023-03-05T14:48:46;5.25;;;2.60;;
39882;SDS011;55824;52.220;21.040;2023-03-05T14:51:12;4.90;;;2.58;;
39882;SDS011;55824;52.220;21.040;2023-03-05T14:53:43;5.10;;;2.75;;
39882;SDS011;55824;52.220;21.040;2023-03-05T14:56:16;4.97;;;2.60;;
39882;SDS011;55824;52.220;21.040;2023-03-05T14:58:47;5.22;;;2.70;;
39882;SDS011;55824;52.220;21.040;2023-03-05T15:01:13;5.00;;;2.63;;
39882;SDS011;55824;52.220;21.040;2023-03-05T15:03:39;4.40;;;2.63;;
39882;SDS011;55824;52.220;21.040;2023-03-05T15:06:05;6.70;;;2.88;;
39882;SDS011;55824;52.220;21.040;2023-03-05T15:08:32;4.30;;;2.75;;
39882;SDS011;55824;52.220;21.040;2023-03-05T15:10:59;5.15;;;3.03;;
39882;SDS011;55824;52.220;21.040;2023-03-05T15:13:25;13.25;;;2.80;;
39882;SDS011;55824;52.220;21.040;2023-03-05T15:15:51;7.72;;;3.40;;
39882;SDS011;55824;52.220;21.040;2023-03-05T15:18:18;35.50;;;5.10;;
39882;SDS011;55824;52.220;21.040;2023-03-05T15:20:45;15.73;;;4.30;;
39882;SDS011;55824;52.220;21.040;2023-03-05T15:23:12;18.55;;;4.30;;
39882;SDS011;55824;52.220;21.040;2023-03-05T15:25:39;33.47;;;5.75;;
39882;SDS011;55824;52.220;21.040;2023-03-05T15:28:05;22.23;;;4.97;;
39882;SDS011;55824;52.220;21.040;2023-03-05T15:30:32;21.13;;;4.78;;
39882;SDS011;55824;52.220;21.040;2023-03-05T15:33:00;18.98;;;3.90;;
39882;SDS011;55824;52.220;21.040;2023-03-05T15:35:26;14.15;;;4.00;;
39882;SDS011;55824;52.220;21.040;2023-03-05T15:37:52;12.60;;;3.80;;
39882;SDS011;55824;52.220;21.040;2023-03-05T15:40:19;11.13;;;4.10;;
39882;SDS011;55824;52.220;21.040;2023-03-05T15:42:45;12.57;;;4.65;;
39882;SDS011;55824;52.220;21.040;2023-03-05T15:45:11;8.88;;;4.25;;
39882;SDS011;55824;52.220;21.040;2023-03-05T15:47:37;22.48;;;3.78;;
39882;SDS011;55824;52.220;21.040;2023-03-05T15:50:03;12.25;;;3.58;;
39882;SDS011;55824;52.220;21.040;2023-03-05T15:52:29;11.48;;;4.00;;
39882;SDS011;55824;52.220;21.040;2023-03-05T15:54:55;22.75;;;4.80;;
39882;SDS011;55824;52.220;21.040;2023-03-05T15:57:21;18.65;;;3.95;;
39882;SDS011;55824;52.220;21.040;2023-03-05T15:59:48;13.77;;;3.90;;
39882;SDS011;55824;52.220;21.040;2023-03-05T16:02:14;16.15;;;3.88;;
39882;SDS011;55824;52.220;21.040;2023-03-05T16:04:40;14.27;;;4.60;;
39882;SDS011;55824;52.220;21.040;2023-03-05T16:07:06;9.63;;;3.75;;
39882;SDS011;55824;52.220;21.040;2023-03-05T16:09:34;11.40;;;4.05;;
39882;SDS011;55824;52.220;21.040;2023-03-05T16:12:02;11.90;;;3.53;;
39882;SDS011;55824;52.220;21.040;2023-03-05T16:14:28;11.82;;;4.45;;
39882;SDS011;55824;52.220;21.040;2023-03-05T16:16:55;11.38;;;3.20;;